createdAt,value
2023-01-05T00:01:29.431Z,98842.44
2023-01-05T00:04:08.553Z,98850.53
2023-01-05T00:06:47.487Z,98843.81
2023-01-05T00:09:27.118Z,98839.56
2023-01-05T00:12:34.939Z,98845.44
2023-01-05T00:15:35.851Z,98859.44
2023-01-05T00:18:49.962Z,98852.75
2023-01-05T00:21:39.241Z,98853.53
2023-01-05T00:24:19.890Z,98861.44
2023-01-05T00:26:53.040Z,98865.91
2023-01-05T00:29:36.848Z,98874.38
2023-01-05T00:32:53.793Z,98871.56
2023-01-05T00:35:01.859Z,98870.28
2023-01-05T00:37:37.326Z,98864.53
2023-01-05T00:40:12.956Z,98877.19
2023-01-05T00:42:50.026Z,98873.09
2023-01-05T00:45:38.241Z,98885.28
2023-01-05T00:48:28.885Z,98876.91
2023-01-05T00:51:09.608Z,98866.34
2023-01-05T00:53:59.778Z,98887.63
2023-01-05T00:56:37.127Z,98885.72
2023-01-05T00:59:15.009Z,98887.53
2023-01-05T01:01:50.623Z,98898.72
2023-01-05T01:04:31.378Z,98894.00
2023-01-05T01:07:13.660Z,98913.25
2023-01-05T01:10:22.390Z,98893.91
2023-01-05T01:12:46.154Z,98893.91
2023-01-05T01:15:30.209Z,98909.72
2023-01-05T01:18:24.996Z,98895.44
2023-01-05T01:21:08.350Z,98910.91
2023-01-05T01:23:38.720Z,98901.69
2023-01-05T01:26:15.237Z,98911.88
2023-01-05T01:29:07.008Z,98904.81
2023-01-05T01:31:43.015Z,98909.13
2023-01-05T01:34:18.071Z,98919.50
2023-01-05T01:36:52.571Z,98929.88
2023-01-05T01:39:31.224Z,98929.88
2023-01-05T01:42:32.682Z,98920.88
2023-01-05T01:45:22.100Z,98932.66
2023-01-05T01:48:04.735Z,98949.66
2023-01-05T01:52:20.017Z,98936.78
2023-01-05T01:54:06.142Z,98961.31
2023-01-05T01:56:39.475Z,98961.31
2023-01-05T01:59:21.301Z,98959.19
2023-01-05T02:02:02.596Z,98956.56
2023-01-05T02:04:47.172Z,98947.00
2023-01-05T02:07:23.236Z,98970.72
2023-01-05T02:09:55.835Z,98961.81
2023-01-05T02:12:51.331Z,98964.19
2023-01-05T02:15:31.689Z,98962.56
2023-01-05T02:18:36.078Z,98965.19
2023-01-05T02:21:29.186Z,98970.56
2023-01-05T02:24:53.362Z,98983.91
2023-01-05T02:27:48.255Z,98994.00
2023-01-05T02:31:11.333Z,98997.28
2023-01-05T02:34:11.912Z,99008.63
2023-01-05T02:36:51.103Z,99003.38
2023-01-05T02:39:40.704Z,99012.78
2023-01-05T02:42:31.282Z,99004.22
2023-01-05T02:45:09.814Z,98998.78
2023-01-05T02:47:46.091Z,99005.41
2023-01-05T02:50:27.431Z,99024.13
2023-01-05T02:53:13.636Z,99017.22
2023-01-05T02:55:52.570Z,99030.91
2023-01-05T02:58:41.984Z,99010.31
2023-01-05T03:01:23.795Z,99030.56
2023-01-05T03:04:02.589Z,99058.91
2023-01-05T03:10:41.036Z,99048.09
2023-01-05T03:13:29.375Z,99053.34
2023-01-05T03:16:06.462Z,99044.97
2023-01-05T03:18:59.793Z,99064.06
2023-01-05T03:21:41.814Z,99079.84
2023-01-05T03:24:35.790Z,99065.69
2023-01-05T03:27:25.218Z,99090.72
2023-01-05T03:30:19.644Z,99081.84
2023-01-05T03:33:11.429Z,99093.19
2023-01-05T03:35:48.867Z,99098.63
2023-01-05T03:38:31.489Z,99090.72
2023-01-05T03:41:11.954Z,99104.56
2023-01-05T03:43:43.359Z,99110.97
2023-01-05T03:46:14.692Z,99112.16
2023-01-05T03:48:56.027Z,99119.06
2023-01-05T03:51:41.258Z,99120.22
2023-01-05T03:54:13.748Z,99111.16
2023-01-05T03:56:51.593Z,99133.88
2023-01-05T03:59:38.233Z,99156.75
2023-01-05T04:02:10.147Z,99148.03
2023-01-05T04:04:40.882Z,99150.00
2023-01-05T04:07:17.775Z,99152.13
2023-01-05T04:09:54.665Z,99159.22
2023-01-05T04:12:30.802Z,99170.91
2023-01-05T04:15:09.358Z,99173.69
2023-01-05T04:17:40.571Z,99180.16
2023-01-05T04:20:20.086Z,99172.88
2023-01-05T04:23:02.769Z,99180.66
2023-01-05T04:25:36.480Z,99183.28
2023-01-05T04:28:12.027Z,99205.00
2023-01-05T04:31:03.662Z,99198.75
2023-01-05T04:33:47.219Z,99222.47
2023-01-05T04:36:31.205Z,99207.47
2023-01-05T04:39:02.293Z,99214.22
2023-01-05T04:41:34.688Z,99227.41
2023-01-05T04:44:06.315Z,99223.78
2023-01-05T04:46:41.925Z,99240.41
2023-01-05T04:49:12.073Z,99236.78
2023-01-05T04:51:46.932Z,99243.84
2023-01-05T04:54:24.893Z,99256.38
2023-01-05T04:57:48.434Z,99249.78
2023-01-05T05:00:04.184Z,99270.53
2023-01-05T05:02:37.209Z,99273.66
2023-01-05T05:05:09.993Z,99293.88
2023-01-05T05:07:49.528Z,99308.69
2023-01-05T05:10:22.791Z,99311.84
2023-01-05T05:12:52.911Z,99316.13
2023-01-05T05:15:34.865Z,99321.56
2023-01-05T05:18:10.775Z,99307.41
2023-01-05T05:21:00.353Z,99309.56
2023-01-05T05:23:31.237Z,99326.19
2023-01-05T05:26:09.341Z,99322.88
2023-01-05T05:29:05.334Z,99327.81
2023-01-05T05:32:46.619Z,99347.88
2023-01-05T05:34:54.972Z,99344.75
2023-01-05T05:37:27.237Z,99340.63
2023-01-05T05:40:01.971Z,99344.28
2023-01-05T05:42:31.809Z,99367.47
2023-01-05T05:45:06.668Z,99360.56
2023-01-05T05:47:36.624Z,99373.03
2023-01-05T05:50:08.248Z,99378.47
2023-01-05T05:52:37.891Z,99366.28
2023-01-05T05:55:09.324Z,99397.06
2023-01-05T05:57:40.799Z,99397.56
2023-01-05T06:00:12.148Z,99407.41
2023-01-05T06:02:45.111Z,99395.25
2023-01-05T06:05:15.712Z,99399.53
2023-01-05T06:07:44.346Z,99413.00
2023-01-05T06:10:15.153Z,99417.44
2023-01-05T06:12:46.799Z,99413.81
2023-01-05T06:15:26.446Z,99430.28
2023-01-05T06:18:01.069Z,99437.66
2023-01-05T06:20:36.974Z,99446.69
2023-01-05T06:23:09.582Z,99465.59
2023-01-05T06:25:40.492Z,99461.31
2023-01-05T06:28:13.660Z,99460.81
2023-01-05T06:30:53.107Z,99484.47
2023-01-05T06:33:21.742Z,99479.03
2023-01-05T06:35:59.780Z,99487.72
2023-01-05T06:38:29.848Z,99492.34
2023-01-05T06:40:59.779Z,99508.94
2023-01-05T06:43:29.657Z,99498.69
2023-01-05T06:46:04.046Z,99496.13
2023-01-05T06:48:34.838Z,99517.78
2023-01-05T06:51:03.593Z,99536.81
2023-01-05T06:53:33.210Z,99536.81
2023-01-05T06:56:01.688Z,99550.28
2023-01-05T06:58:31.135Z,99561.78
2023-01-05T07:01:06.318Z,99576.72
2023-01-05T07:03:35.228Z,99570.13
2023-01-05T07:06:05.991Z,99574.69
2023-01-05T07:08:38.806Z,99594.72
2023-01-05T07:11:07.672Z,99580.91
2023-01-05T07:13:36.888Z,99607.47
2023-01-05T07:16:18.038Z,99614.03
2023-01-05T07:18:47.046Z,99615.03
2023-01-05T07:21:18.489Z,99599.41
2023-01-05T07:23:47.165Z,99629.28
2023-01-05T07:26:15.647Z,99638.44
2023-01-05T07:28:45.935Z,99642.72
2023-01-05T07:31:15.984Z,99661.41
2023-01-05T07:33:48.542Z,99678.47
2023-01-05T07:36:18.573Z,99690.63
2023-01-05T07:38:47.370Z,99695.91
2023-01-05T07:41:16.135Z,99708.06
2023-01-05T07:43:50.014Z,99704.59
2023-01-05T07:46:22.802Z,99701.75
2023-01-05T07:48:53.283Z,99727.56
2023-01-05T07:51:23.611Z,99708.50
2023-01-05T07:53:53.790Z,99733.13
2023-01-05T07:56:24.249Z,99727.88
2023-01-05T07:58:54.312Z,99731.47
2023-01-05T08:01:27.389Z,99759.97
2023-01-05T08:03:59.725Z,99767.56
2023-01-05T08:06:33.679Z,99768.03
2023-01-05T08:09:26.541Z,99780.84
2023-01-05T08:11:57.735Z,99784.44
2023-01-05T08:14:27.140Z,99785.75
2023-01-05T08:16:59.603Z,99827.78
2023-01-05T08:19:41.079Z,99832.34
2023-01-05T08:22:09.953Z,99824.34
2023-01-05T08:24:38.904Z,99798.91
2023-01-05T08:27:09.120Z,99823.09
2023-01-05T08:29:38.312Z,99819.41
2023-01-05T08:32:08.939Z,99835.53
2023-01-05T08:34:38.205Z,99825.78
2023-01-05T08:37:08.349Z,99839.44
2023-01-05T08:39:37.816Z,99858.50
2023-01-05T08:42:06.631Z,99868.03
2023-01-05T08:44:36.991Z,99869.41
2023-01-05T08:47:06.110Z,99866.09
2023-01-05T08:49:36.548Z,99896.59
2023-01-05T08:52:09.678Z,99896.19
2023-01-05T08:54:39.671Z,99909.19
2023-01-05T08:57:11.009Z,99914.84
2023-01-05T08:59:40.828Z,99941.41
2023-01-05T09:02:16.940Z,99945.28
2023-01-05T09:04:49.339Z,99959.66
2023-01-05T09:07:20.965Z,99956.47
2023-01-05T09:09:49.606Z,99961.88
2023-01-05T09:12:21.933Z,99964.09
2023-01-05T09:14:54.728Z,99968.50
2023-01-05T09:17:26.447Z,99982.50
2023-01-05T09:20:04.024Z,99994.66
2023-01-05T09:22:35.072Z,99992.47
2023-01-05T09:25:13.810Z,100006.41
2023-01-05T09:27:52.310Z,100013.47
2023-01-05T09:30:26.093Z,100009.03
2023-01-05T09:32:55.289Z,100020.25
2023-01-05T09:35:37.008Z,100048.59
2023-01-05T09:38:07.383Z,100042.66
2023-01-05T09:40:42.873Z,100061.72
2023-01-05T09:43:17.999Z,100062.84
2023-01-05T09:45:47.036Z,100079.28
2023-01-05T09:48:18.769Z,100053.13
2023-01-05T09:50:51.251Z,100067.28
2023-01-05T09:53:35.981Z,100078.16
2023-01-05T09:56:05.201Z,100087.16
2023-01-05T09:58:38.859Z,100094.06
2023-01-05T10:01:12.651Z,100123.69
2023-01-05T10:06:44.683Z,100150.38
2023-01-05T10:09:22.159Z,100128.97
2023-01-05T10:12:12.804Z,100132.81
2023-01-05T10:14:46.853Z,100142.09
2023-01-05T10:17:41.117Z,100139.47
2023-01-05T10:20:15.984Z,100145.00
2023-01-05T10:23:05.808Z,100149.44
2023-01-05T10:25:46.218Z,100173.19
2023-01-05T10:28:37.383Z,100192.28
2023-01-05T10:31:13.994Z,100175.44
2023-01-05T10:33:53.848Z,100184.16
2023-01-05T10:39:56.182Z,100189.53
2023-01-05T10:42:41.154Z,100205.03
2023-01-05T10:45:12.999Z,100208.91
2023-01-05T10:47:42.706Z,100201.16
2023-01-05T10:50:36.608Z,100208.38
2023-01-05T10:53:13.035Z,100211.38
2023-01-05T10:55:55.767Z,100212.22
2023-01-05T10:58:26.243Z,100236.97
2023-01-05T11:00:59.822Z,100226.19
2023-01-05T11:04:14.980Z,100230.50
2023-01-05T11:06:30.598Z,100234.66
2023-01-05T11:09:17.419Z,100244.31
2023-01-05T11:12:06.344Z,100258.56
2023-01-05T11:14:43.978Z,100263.16
2023-01-05T11:17:22.879Z,100258.69
2023-01-05T11:19:54.697Z,100263.56
2023-01-05T11:22:32.096Z,100277.09
2023-01-05T11:25:34.391Z,100270.44
2023-01-05T11:28:19.856Z,100290.09
2023-01-05T11:31:02.298Z,100285.22
2023-01-05T11:33:40.003Z,100297.53
2023-01-05T11:36:09.207Z,100295.16
2023-01-05T11:38:39.639Z,100306.47
2023-01-05T11:41:19.169Z,100309.50
2023-01-05T11:43:54.429Z,100314.47
2023-01-05T11:46:26.150Z,100335.84
2023-01-05T11:49:01.222Z,100326.69
2023-01-05T11:51:37.350Z,100334.84
2023-01-05T11:54:26.691Z,100355.44
2023-01-05T11:57:13.487Z,100360.69
2023-01-05T11:59:48.448Z,100363.03
2023-01-05T12:02:46.583Z,100361.75
2023-01-05T12:05:35.731Z,100381.19
2023-01-05T12:08:10.987Z,100369.31
2023-01-05T12:11:01.593Z,100376.84
2023-01-05T12:13:52.021Z,100377.81
2023-01-05T12:16:34.560Z,100400.22
2023-01-05T12:19:30.991Z,100394.41
2023-01-05T12:22:29.341Z,100413.59
2023-01-05T12:25:19.566Z,100405.44
2023-01-05T12:28:29.229Z,100411.88
2023-01-05T12:34:29.804Z,100426.78
2023-01-05T12:37:19.440Z,100438.38
2023-01-05T12:40:23.294Z,100445.81
2023-01-05T12:43:09.012Z,100464.41
2023-01-05T12:46:09.751Z,100474.19
2023-01-05T12:48:44.443Z,100493.66
2023-01-05T12:51:28.640Z,100477.59
2023-01-05T12:54:04.274Z,100487.00
2023-01-05T12:56:39.857Z,100476.34
2023-01-05T12:59:20.410Z,100490.56
2023-01-05T13:01:58.653Z,100497.97
2023-01-05T13:04:48.441Z,100510.03
2023-01-05T13:07:27.556Z,100499.88
2023-01-05T13:10:05.587Z,100525.53
2023-01-05T13:12:35.984Z,100521.22
2023-01-05T13:15:23.083Z,100535.69
2023-01-05T13:17:57.080Z,100547.97
2023-01-05T13:20:36.914Z,100554.38
2023-01-05T13:23:15.673Z,100544.50
2023-01-05T13:25:52.602Z,100541.41
2023-01-05T13:28:24.067Z,100569.31
2023-01-05T13:31:19.280Z,100565.38
2023-01-05T13:34:04.628Z,100575.63
2023-01-05T13:36:56.257Z,100572.38
2023-01-05T13:39:44.095Z,100588.25
2023-01-05T13:42:27.053Z,100577.50
2023-01-05T13:45:28.413Z,100593.00
2023-01-05T13:51:06.210Z,100602.97
2023-01-05T13:53:41.617Z,100599.13
2023-01-05T13:56:26.474Z,100622.13
2023-01-05T13:59:15.581Z,100627.38
2023-01-05T14:02:35.559Z,100623.41
2023-01-05T14:05:18.576Z,100640.09
2023-01-05T14:07:47.800Z,100635.44
2023-01-05T14:10:27.788Z,100630.16
2023-01-05T14:13:07.298Z,100646.69
2023-01-05T14:15:56.170Z,100672.28
2023-01-05T14:18:51.591Z,100655.56
2023-01-05T14:21:54.976Z,100689.59
2023-01-05T14:24:31.461Z,100689.09
2023-01-05T14:27:20.535Z,100705.22
2023-01-05T14:30:24.867Z,100706.38
2023-01-05T14:33:07.721Z,100701.25
2023-01-05T14:35:43.881Z,100726.81
2023-01-05T14:38:36.754Z,100727.88
2023-01-05T14:41:30.888Z,100729.66
2023-01-05T14:44:05.310Z,100744.19
2023-01-05T14:46:49.449Z,100755.09
2023-01-05T14:49:28.448Z,100751.03
2023-01-05T14:52:08.540Z,100762.97
2023-01-05T14:55:05.683Z,100753.66
2023-01-05T14:57:50.700Z,100762.53
2023-01-05T15:00:30.874Z,100772.28
2023-01-05T15:03:24.701Z,100782.16
2023-01-05T15:06:15.053Z,100788.75
2023-01-05T15:09:07.890Z,100795.03
2023-01-05T15:12:07.587Z,100801.19
2023-01-05T15:15:03.935Z,100797.44
2023-01-05T15:18:11.157Z,100802.28
2023-01-05T15:21:16.231Z,100809.28
2023-01-05T15:24:15.842Z,100826.75
2023-01-05T15:27:06.212Z,100822.03
2023-01-05T15:30:05.382Z,100822.38
2023-01-05T15:32:39.040Z,100833.88
2023-01-05T15:35:19.519Z,100839.31
2023-01-05T15:37:57.561Z,100835.53
2023-01-05T15:40:53.835Z,100821.94
2023-01-05T15:43:24.988Z,100848.09
2023-01-05T15:45:58.610Z,100856.69
2023-01-05T15:48:38.650Z,100844.66
2023-01-05T15:51:13.735Z,100852.28
2023-01-05T15:53:45.905Z,100868.00
2023-01-05T15:56:29.342Z,100850.31
2023-01-05T15:59:02.297Z,100847.59
2023-01-05T16:01:31.333Z,100864.13
2023-01-05T16:04:17.997Z,100845.69
2023-01-05T16:06:50.759Z,100867.78
2023-01-05T16:09:28.193Z,100870.50
2023-01-05T16:12:03.724Z,100875.44
2023-01-05T16:14:41.397Z,100883.28
2023-01-05T16:17:19.517Z,100881.91
2023-01-05T16:19:55.809Z,100897.81
2023-01-05T16:22:32.646Z,100900.53
2023-01-05T16:25:06.197Z,100906.22
2023-01-05T16:27:42.366Z,100913.72
2023-01-05T16:30:29.639Z,100912.56
2023-01-05T16:33:12.180Z,100924.44
2023-01-05T16:35:53.173Z,100912.09
2023-01-05T16:38:31.521Z,100917.81
2023-01-05T16:41:10.681Z,100923.25
2023-01-05T16:43:49.575Z,100926.81
2023-01-05T16:46:53.321Z,100927.66
2023-01-05T16:49:49.875Z,100933.53
2023-01-05T16:52:46.020Z,100936.34
2023-01-05T16:55:33.808Z,100958.97
2023-01-05T16:58:06.840Z,100969.25
2023-01-05T17:00:41.804Z,100963.09
2023-01-05T17:03:32.204Z,100970.09
2023-01-05T17:06:05.222Z,100966.84
2023-01-05T17:08:36.480Z,100962.66
2023-01-05T17:11:14.213Z,100958.66
2023-01-05T17:13:49.136Z,100965.50
2023-01-05T17:16:22.803Z,100974.91
2023-01-05T17:18:58.407Z,100970.41
2023-01-05T17:21:33.107Z,100976.38
2023-01-05T17:24:04.071Z,100981.41
2023-01-05T17:26:47.251Z,100974.50
2023-01-05T17:29:24.216Z,100977.84
2023-01-05T17:31:59.334Z,100990.31
2023-01-05T17:34:34.429Z,101003.19
2023-01-05T17:37:09.383Z,101004.31
2023-01-05T17:39:43.189Z,101003.16
2023-01-05T17:42:29.188Z,101003.16
2023-01-05T17:45:01.737Z,101022.22
2023-01-05T17:47:42.206Z,101021.41
2023-01-05T17:50:15.876Z,101037.09
2023-01-05T17:52:48.757Z,101033.94
2023-01-05T17:55:34.076Z,101027.13
2023-01-05T17:58:05.822Z,101025.25
2023-01-05T18:00:50.267Z,101033.09
2023-01-05T18:06:20.209Z,101034.44
2023-01-05T18:08:50.739Z,101041.25
2023-01-05T18:11:23.773Z,101045.09
2023-01-05T18:14:02.681Z,101045.09
2023-01-05T18:16:32.539Z,101042.78
2023-01-05T18:19:08.263Z,101054.53
2023-01-05T18:24:16.666Z,101069.22
2023-01-05T18:26:50.759Z,101063.97
2023-01-05T18:29:46.704Z,101053.78
2023-01-05T18:32:32.277Z,101064.91
2023-01-05T18:35:09.763Z,101071.28
2023-01-05T18:37:39.579Z,101066.44
2023-01-05T18:40:12.267Z,101073.56
2023-01-05T18:42:43.752Z,101061.31
2023-01-05T18:45:19.853Z,101074.31
2023-01-05T18:48:01.441Z,101064.31
2023-01-05T18:50:36.739Z,101072.31
2023-01-05T18:53:06.506Z,101084.25
2023-01-05T18:55:44.148Z,101075.84
2023-01-05T18:58:25.479Z,101076.50
2023-01-05T19:00:54.370Z,101089.41
2023-01-05T19:03:27.025Z,101074.34
2023-01-05T19:06:01.061Z,101080.63
2023-01-05T19:08:29.769Z,101063.84
2023-01-05T19:11:18.780Z,101060.66
2023-01-05T19:13:55.124Z,101077.72
2023-01-05T19:16:28.073Z,101082.16
2023-01-05T19:19:03.730Z,101091.56
2023-01-05T19:21:37.998Z,101082.25
2023-01-05T19:24:15.203Z,101090.81
2023-01-05T19:27:07.601Z,101085.91
2023-01-05T19:29:49.279Z,101092.72
2023-01-05T19:32:21.736Z,101090.81
2023-01-05T19:34:52.897Z,101104.44
2023-01-05T19:37:23.386Z,101114.94
2023-01-05T19:39:52.212Z,101105.28
2023-01-05T19:42:26.758Z,101104.44
2023-01-05T19:44:55.843Z,101117.25
2023-01-05T19:47:26.506Z,101096.59
2023-01-05T19:50:04.314Z,101089.03
2023-01-05T19:52:40.228Z,101095.94
2023-01-05T19:55:10.895Z,101107.81
2023-01-05T19:57:41.473Z,101113.06
2023-01-05T20:00:16.500Z,101120.91
2023-01-05T20:02:57.059Z,101125.56
2023-01-05T20:05:31.841Z,101128.19
2023-01-05T20:08:34.512Z,101150.34
2023-01-05T20:10:54.587Z,101146.03
2023-01-05T20:13:30.083Z,101156.44
2023-01-05T20:16:07.648Z,101169.03
2023-01-05T20:18:43.540Z,101154.09
2023-01-05T20:21:14.225Z,101156.69
2023-01-05T20:23:44.609Z,101171.19
2023-01-05T20:26:24.823Z,101165.41
2023-01-05T20:29:06.227Z,101182.88
2023-01-05T20:31:40.377Z,101186.59
2023-01-05T20:34:13.474Z,101186.06
2023-01-05T20:36:46.321Z,101177.84
2023-01-05T20:39:23.803Z,101189.06
2023-01-05T20:41:56.561Z,101177.75
2023-01-05T20:44:30.345Z,101197.75
2023-01-05T20:47:07.929Z,101198.78
2023-01-05T20:49:37.155Z,101202.72
2023-01-05T20:52:09.860Z,101201.56
2023-01-05T20:54:46.576Z,101206.91
2023-01-05T20:57:19.695Z,101222.97
2023-01-05T20:59:57.907Z,101232.97
2023-01-05T21:02:32.576Z,101245.50
2023-01-05T21:05:04.324Z,101240.72
2023-01-05T21:07:40.900Z,101239.88
2023-01-05T21:10:17.931Z,101253.06
2023-01-05T21:12:50.972Z,101256.81
2023-01-05T21:15:25.790Z,101258.50
2023-01-05T21:18:04.474Z,101258.78
2023-01-05T21:20:39.093Z,101252.69
2023-01-05T21:23:09.171Z,101251.66
2023-01-05T21:26:07.083Z,101254.38
2023-01-05T21:28:33.402Z,101257.56
2023-01-05T21:31:07.856Z,101257.91
2023-01-05T21:33:43.841Z,101255.56
2023-01-05T21:36:21.086Z,101262.56
2023-01-05T21:39:00.893Z,101260.72
2023-01-05T21:41:50.949Z,101258.84
2023-01-05T21:44:25.322Z,101235.66
2023-01-05T21:47:05.739Z,101237.25
2023-01-05T21:49:37.698Z,101246.88
2023-01-05T21:52:26.371Z,101238.25
2023-01-05T21:55:17.982Z,101239.75
2023-01-05T21:57:49.147Z,101254.44
2023-01-05T22:00:18.712Z,101245.75
2023-01-05T22:02:49.831Z,101244.16
2023-01-05T22:05:22.903Z,101237.25
2023-01-05T22:07:53.535Z,101235.13
2023-01-05T22:10:24.494Z,101238.00
2023-01-05T22:12:56.858Z,101237.16
2023-01-05T22:15:27.706Z,101243.34
2023-01-05T22:18:18.279Z,101246.69
2023-01-05T22:20:53.019Z,101267.56
2023-01-05T22:23:28.944Z,101260.44
2023-01-05T22:26:10.033Z,101268.13
2023-01-05T22:28:43.290Z,101277.34
2023-01-05T22:31:18.392Z,101272.13
2023-01-05T22:33:49.929Z,101264.25
2023-01-05T22:36:24.763Z,101265.59
2023-01-05T22:39:04.907Z,101264.00
2023-01-05T22:41:41.717Z,101280.81
2023-01-05T22:44:19.715Z,101273.53
2023-01-05T22:46:50.223Z,101279.44
2023-01-05T22:49:20.483Z,101289.91
2023-01-05T22:51:57.525Z,101291.56
2023-01-05T22:54:32.766Z,101285.50
2023-01-05T22:57:03.918Z,101293.91
2023-01-05T22:59:40.499Z,101294.00
2023-01-05T23:02:18.641Z,101289.50
2023-01-05T23:05:07.842Z,101296.25
2023-01-05T23:07:52.605Z,101300.47
2023-01-05T23:10:31.498Z,101298.22
2023-01-05T23:13:12.942Z,101288.56
2023-01-05T23:15:48.844Z,101291.84
2023-01-05T23:18:20.433Z,101299.53
2023-01-05T23:20:55.137Z,101300.75
2023-01-05T23:23:25.911Z,101288.41
2023-01-05T23:26:10.225Z,101297.53
2023-01-05T23:28:41.974Z,101312.31
2023-01-05T23:31:24.790Z,101317.38
2023-01-05T23:34:22.154Z,101317.56
2023-01-05T23:36:50.711Z,101320.84
2023-01-05T23:39:42.791Z,101312.88
2023-01-05T23:42:35.448Z,101330.81
2023-01-05T23:45:09.325Z,101316.34
2023-01-05T23:47:41.736Z,101329.78
2023-01-05T23:50:12.747Z,101323.91
2023-01-05T23:52:44.229Z,101328.41
2023-01-05T23:55:16.446Z,101323.91
2023-01-05T23:57:45.103Z,101327.28
